G.commander — DSQR5 — position and weather

sailwx.info

Track history (hours):
 
Tides and Currents Weather Stations Pressure Air Temp Water Temp Dewpoint Dewpoint Depression Visibility Wind Speed Wind Dir Waves Ship Positions

G.commander

Last reported at 2014-Jul-19 10:11 UTC. Time now 2014-Aug-02 02:42 UTC.
Position N 01°10' E 103°43'.
Warning: this ship's position is 13 days out of date.

Length 230 m; draft 7.4 m.

Type: Tanker. MMSI: 441681000.

Date/timePositionNaut miles runAvg speedWind from/ knotsBaromVisibWave heightAir tempDewpointWater temp
2014-Jul-19 10:11N 01°10' E 103°43'1 1.9
2014-Jul-19 09:29N 01°09' E 103°43'7 7.3
2014-Jul-19 08:33N 01°12' E 103°50'7 7.0
2014-Jul-19 07:33N 01°14' E 103°56'10 9.9
2014-Jul-19 06:33N 01°17' E 104°06'  
2014-Jul-14 18:33N 22°50' E 119°37'4314.3
2014-Jul-14 15:33N 23°31' E 119°52'5012.3
2014-Jul-14 11:31N 24°16' E 120°14'2114.6
2014-Jul-14 10:06N 24°34' E 120°25'1014.6
2014-Jul-14 09:26N 24°43' E 120°30'31914.5
2014-Jul-13 11:27N 29°35' E 122°55'1516.9
2014-Jul-13 10:32N 29°49' E 123°01'1717.6
2014-Jul-13 09:33N 30°06' E 123°03'1717.1
2014-Jul-13 08:33N 30°22' E 122°54'1818.3
2014-Jul-13 07:34N 30°33' E 122°37'1413.5
2014-Jul-13 06:33N 30°32' E 122°22'1515.1
2014-Jul-13 05:33N 30°31' E 122°04'1515.0
2014-Jul-13 04:33N 30°29' E 121°47'1413.6
2014-Jul-13 03:33N 30°31' E 121°31'5 0.1
2014-Jul-11 03:15N 30°31' E 121°38'1012.9
2014-Jul-11 02:30N 30°30' E 121°49'1212.7
2014-Jul-11 01:33N 30°31' E 122°02'1211.8
2014-Jul-11 00:33N 30°33' E 122°16'1111.1
2014-Jul-10 23:33N 30°35' E 122°29'4 3.8
2014-Jul-10 22:33N 30°35' E 122°33'8 7.7
2014-Jul-10 21:34N 30°31' E 122°41'1110.5
2014-Jul-10 20:33N 30°24' E 122°50'1010.1
2014-Jul-10 19:33N 30°18' E 122°60'7 7.0
2014-Jul-10 18:33N 30°18' E 123°08'1110.8
2014-Jul-10 17:32N 30°28' E 123°13'51 9.7
2014-Jul-10 12:16N 30°49' E 124°07'  
Track history (hours):
 
Tides and Currents Weather Stations Pressure Air Temp Water Temp Dewpoint Dewpoint Depression Visibility Wind Speed Wind Dir Waves Ship Positions

G.commander

Last reported at 2014-Jul-19 10:11 UTC. Time now 2014-Aug-02 02:42 UTC.
Position N 01°10' E 103°43'.
Warning: this ship's position is 13 days out of date.

Length 230 m; draft 7.4 m.

Type: Tanker. MMSI: 441681000.

Date/timePositionNaut miles runAvg speedWind from/ knotsBaromVisibWave heightAir tempDewpointWater temp
2014-Jul-19 10:11N 01°10' E 103°43'1 1.9
2014-Jul-19 09:29N 01°09' E 103°43'7 7.3
2014-Jul-19 08:33N 01°12' E 103°50'7 7.0
2014-Jul-19 07:33N 01°14' E 103°56'10 9.9
2014-Jul-19 06:33N 01°17' E 104°06'  
2014-Jul-14 18:33N 22°50' E 119°37'4314.3
2014-Jul-14 15:33N 23°31' E 119°52'5012.3
2014-Jul-14 11:31N 24°16' E 120°14'2114.6
2014-Jul-14 10:06N 24°34' E 120°25'1014.6
2014-Jul-14 09:26N 24°43' E 120°30'31914.5
2014-Jul-13 11:27N 29°35' E 122°55'1516.9
2014-Jul-13 10:32N 29°49' E 123°01'1717.6
2014-Jul-13 09:33N 30°06' E 123°03'1717.1
2014-Jul-13 08:33N 30°22' E 122°54'1818.3
2014-Jul-13 07:34N 30°33' E 122°37'1413.5
2014-Jul-13 06:33N 30°32' E 122°22'1515.1
2014-Jul-13 05:33N 30°31' E 122°04'1515.0
2014-Jul-13 04:33N 30°29' E 121°47'1413.6
2014-Jul-13 03:33N 30°31' E 121°31'5 0.1
2014-Jul-11 03:15N 30°31' E 121°38'1012.9
2014-Jul-11 02:30N 30°30' E 121°49'1212.7
2014-Jul-11 01:33N 30°31' E 122°02'1211.8
2014-Jul-11 00:33N 30°33' E 122°16'1111.1
2014-Jul-10 23:33N 30°35' E 122°29'4 3.8
2014-Jul-10 22:33N 30°35' E 122°33'8 7.7
2014-Jul-10 21:34N 30°31' E 122°41'1110.5
2014-Jul-10 20:33N 30°24' E 122°50'1010.1
2014-Jul-10 19:33N 30°18' E 122°60'7 7.0
2014-Jul-10 18:33N 30°18' E 123°08'1110.8
2014-Jul-10 17:32N 30°28' E 123°13'51 9.7
2014-Jul-10 12:16N 30°49' E 124°07'  

Dump ship's entire track history